Time;durP1;ratioP1;P1;durP2;ratioP2;P2;SDS_P1;SDS_P2;PMS_P1;PMS_P2;Temp;Humidity;BMP_temperature;BMP_pressure;BME280_temperature;BME280_humidity;BME280_pressure;Samples;Min_cycle;Max_cycle;Signal;HPM_P1;HPM_P2
2022/09/30 00:01:55;;;;;;;;;;;;;;;5.76;94.55;98474.28;8245433;28;20657;-77
2022/09/30 00:05:57;;;;;;;;;;;;;;;5.75;94.65;98472.56;8253032;28;19983;-77
2022/09/30 00:09:58;;;;;;;;;;;;;;;5.73;94.87;98466.53;8258272;28;19925;-77
2022/09/30 00:14:00;;;;;;;;;;;;;;;5.77;95.47;98478.56;8233050;28;20409;-77
2022/09/30 00:18:01;;;;;;;;;;;;;;;5.79;94.90;98486.31;8246658;28;20364;-77
2022/09/30 00:22:03;;;;;;;;;;;;;;;5.68;94.33;98489.72;8242463;28;19926;-77
2022/09/30 00:26:05;;;;;;;;;;;;;;;5.66;94.51;98488.88;8248219;28;20016;-77
2022/09/30 00:30:07;;;;;;;;;;;;;;;5.64;94.16;98487.16;8247595;28;19925;-77
2022/09/30 00:34:10;;;;;;;;;;;;;;;5.57;94.40;98488.88;8257840;28;19979;-76
2022/09/30 00:38:12;;;;;;;;;;;;;;;5.52;93.61;98497.44;8246772;28;20409;-77
2022/09/30 00:42:13;;;;;;;;;;;;;;;5.52;93.94;98502.56;8256919;28;19928;-77
2022/09/30 00:46:18;;;;;;;;;;;;;;;5.56;94.34;98504.28;8248390;28;20351;-77
2022/09/30 00:50:35;;;;;;;;;;;;;;;5.59;94.60;98496.59;8246090;28;19992;-77
2022/09/30 00:54:37;;;;;;;;;;;;;;;5.65;94.75;98499.16;8226593;28;19926;-77
2022/09/30 00:58:42;;;;;;;;;;;;;;;5.70;95.37;98510.31;8238975;28;19989;-77
2022/09/30 01:02:45;;;;;;;;;;;;;;;5.72;95.52;98506.03;8246283;28;19925;-77
2022/09/30 01:06:47;;;;;;;;;;;;;;;5.71;95.44;98510.31;8250063;28;19980;-77
2022/09/30 01:10:48;;;;;;;;;;;;;;;5.65;95.28;98512.91;8248941;28;20265;-77
2022/09/30 01:14:52;;;;;;;;;;;;;;;5.60;95.31;98513.75;8248965;28;20021;-77
2022/09/30 01:19:12;;;;;;;;;;;;;;;5.56;95.15;98514.59;8244759;28;19926;-77
2022/09/30 01:23:32;;;;;;;;;;;;;;;5.51;94.83;98516.31;8244281;28;19936;-77
2022/09/30 01:27:33;;;;;;;;;;;;;;;5.36;94.48;98511.97;8254965;28;19925;-77
2022/09/30 01:31:53;;;;;;;;;;;;;;;5.35;94.70;98511.13;8247823;28;20860;-77
2022/09/30 01:36:02;;;;;;;;;;;;;;;5.32;94.64;98517.97;8250940;28;19940;-77
2022/09/30 01:40:13;;;;;;;;;;;;;;;5.32;95.39;98513.69;8243560;28;19925;-77
2022/09/30 01:44:18;;;;;;;;;;;;;;;5.34;95.18;98518.84;8245366;28;19929;-77
2022/09/30 01:48:20;;;;;;;;;;;;;;;5.35;94.98;98528.28;8243519;28;19926;-77
2022/09/30 01:52:24;;;;;;;;;;;;;;;5.33;95.15;98527.44;8251826;28;20642;-77
2022/09/30 01:56:31;;;;;;;;;;;;;;;5.34;95.70;98535.16;8255836;28;19965;-77
2022/09/30 02:00:35;;;;;;;;;;;;;;;5.43;96.11;98536.91;8266133;28;19925;-77
2022/09/30 02:04:40;;;;;;;;;;;;;;;5.43;96.13;98539.47;8268953;28;20433;-77
2022/09/30 02:08:59;;;;;;;;;;;;;;;5.43;95.92;98539.47;8266724;28;20008;-77
2022/09/30 02:13:10;;;;;;;;;;;;;;;5.41;95.75;98543.75;8262564;28;19932;-77
2022/09/30 02:17:14;;;;;;;;;;;;;;;5.33;94.99;98548.00;8249721;28;19922;-78
2022/09/30 02:21:19;;;;;;;;;;;;;;;5.29;94.80;98546.28;8282092;28;20402;-77
2022/09/30 02:25:31;;;;;;;;;;;;;;;5.29;95.02;98544.59;8259756;28;19961;-77
2022/09/30 02:29:35;;;;;;;;;;;;;;;5.22;94.42;98539.44;8252884;28;19937;-77
2022/09/30 02:33:49;;;;;;;;;;;;;;;5.15;94.84;98541.09;8260478;28;20263;-77
2022/09/30 02:37:59;;;;;;;;;;;;;;;5.17;94.48;98544.53;8255057;28;19992;-77
2022/09/30 02:42:08;;;;;;;;;;;;;;;5.18;95.00;98551.41;8264619;28;19921;-77
2022/09/30 02:46:17;;;;;;;;;;;;;;;5.19;95.39;98555.69;8253784;28;19988;-77
2022/09/30 02:50:25;;;;;;;;;;;;;;;5.23;95.53;98562.59;8245242;28;20235;-77
2022/09/30 02:54:33;;;;;;;;;;;;;;;5.28;95.66;98562.59;8261206;28;19976;-77
2022/09/30 02:58:38;;;;;;;;;;;;;;;5.31;95.91;98560.03;8248076;28;20220;-77
2022/09/30 03:02:40;;;;;;;;;;;;;;;5.31;96.19;98555.72;8249177;28;19926;-77
2022/09/30 03:06:41;;;;;;;;;;;;;;;5.35;96.14;98551.44;8250533;28;20240;-77
2022/09/30 03:10:43;;;;;;;;;;;;;;;5.25;95.28;98560.88;8256549;28;20410;-77
2022/09/30 03:15:11;;;;;;;;;;;;;;;5.15;95.91;98557.41;8258470;28;19929;-77
2022/09/30 03:19:16;;;;;;;;;;;;;;;5.10;95.52;98560.81;8253441;28;19925;-77
2022/09/30 03:23:36;;;;;;;;;;;;;;;5.11;95.72;98560.81;8261093;28;19932;-78
2022/09/30 03:28:10;;;;;;;;;;;;;;;5.08;96.15;98563.38;8253005;28;19925;-77
2022/09/30 03:32:43;;;;;;;;;;;;;;;5.10;96.29;98565.97;8207140;28;20565;-77
2022/09/30 03:36:50;;;;;;;;;;;;;;;5.05;95.87;98572.81;8252714;28;19926;-77
2022/09/30 03:40:58;;;;;;;;;;;;;;;5.03;95.80;98575.38;8248604;28;19926;-77
2022/09/30 03:45:10;;;;;;;;;;;;;;;4.91;95.11;98577.03;8261782;28;19929;-77
2022/09/30 03:49:14;;;;;;;;;;;;;;;4.90;94.63;98563.31;8249774;28;19936;-77
2022/09/30 03:53:16;;;;;;;;;;;;;;;4.80;94.38;98564.94;8274062;28;19930;-77
2022/09/30 03:57:17;;;;;;;;;;;;;;;4.69;93.91;98574.34;8249961;28;19929;-77
2022/09/30 04:01:20;;;;;;;;;;;;;;;4.68;94.63;98584.63;8234933;28;19984;-77
2022/09/30 04:05:21;;;;;;;;;;;;;;;4.67;94.85;98583.75;8253801;28;20606;-77
2022/09/30 04:09:22;;;;;;;;;;;;;;;4.71;94.60;98588.06;8258441;28;20656;-77
2022/09/30 04:13:24;;;;;;;;;;;;;;;4.75;95.21;98600.06;8247840;28;19941;-77
2022/09/30 04:17:26;;;;;;;;;;;;;;;4.73;94.63;98606.94;8259613;28;19973;-77
2022/09/30 04:21:27;;;;;;;;;;;;;;;4.74;94.59;98608.66;8252527;28;19980;-77
2022/09/30 04:25:29;;;;;;;;;;;;;;;4.78;95.20;98617.22;8270142;28;19988;-77
2022/09/30 04:29:30;;;;;;;;;;;;;;;4.68;94.65;98626.63;8244498;28;19926;-77
2022/09/30 04:33:31;;;;;;;;;;;;;;;4.72;95.29;98633.50;8245525;28;19992;-77
2022/09/30 04:37:33;;;;;;;;;;;;;;;4.75;95.52;98630.94;8250747;28;19969;-77
2022/09/30 04:41:35;;;;;;;;;;;;;;;4.74;95.45;98628.34;8249691;28;19929;-77
2022/09/30 04:45:41;;;;;;;;;;;;;;;4.74;95.75;98636.06;8238330;28;19980;-77
2022/09/30 04:49:42;;;;;;;;;;;;;;;4.67;95.71;98635.19;8227190;28;19929;-77
2022/09/30 04:53:44;;;;;;;;;;;;;;;4.62;95.11;98641.97;8243491;28;19984;-77
2022/09/30 04:57:46;;;;;;;;;;;;;;;4.59;95.46;98654.81;8243300;28;19933;-77
2022/09/30 05:01:47;;;;;;;;;;;;;;;4.54;95.76;98657.38;8240024;28;20385;-77
2022/09/30 05:05:48;;;;;;;;;;;;;;;4.59;95.96;98664.25;8235278;28;19931;-77
2022/09/30 05:09:51;;;;;;;;;;;;;;;4.54;95.73;98666.78;8245598;28;20787;-77
2022/09/30 05:13:54;;;;;;;;;;;;;;;4.40;95.25;98673.50;8247092;28;19925;-77
2022/09/30 05:17:55;;;;;;;;;;;;;;;4.44;96.17;98677.81;8240202;28;19933;-77
2022/09/30 05:21:57;;;;;;;;;;;;;;;4.50;96.41;98685.63;8248659;28;19926;-77
2022/09/30 05:26:00;;;;;;;;;;;;;;;4.59;96.62;98677.97;8248215;28;19964;-77
2022/09/30 05:30:02;;;;;;;;;;;;;;;4.65;96.89;98685.72;8249681;28;19925;-77
2022/09/30 05:34:03;;;;;;;;;;;;;;;4.71;97.01;98690.06;8239506;28;20024;-77
2022/09/30 05:38:04;;;;;;;;;;;;;;;4.78;96.78;98682.38;8248802;28;19933;-77
2022/09/30 05:42:06;;;;;;;;;;;;;;;4.83;96.99;98697.84;8249824;28;19988;-77
2022/09/30 05:46:14;;;;;;;;;;;;;;;4.87;97.12;98699.59;8243381;28;20685;-77
2022/09/30 05:50:15;;;;;;;;;;;;;;;4.87;97.07;98709.03;8251359;28;20701;-77
2022/09/30 05:54:16;;;;;;;;;;;;;;;4.89;97.21;98715.06;8233234;28;20002;-77
2022/09/30 05:58:19;;;;;;;;;;;;;;;4.84;96.56;98728.72;8249114;28;19925;-77
2022/09/30 06:02:20;;;;;;;;;;;;;;;4.81;96.66;98733.84;8225231;28;19946;-77
2022/09/30 06:06:22;;;;;;;;;;;;;;;4.83;96.58;98729.56;8250381;28;19930;-77
2022/09/30 06:10:23;;;;;;;;;;;;;;;4.83;96.57;98727.00;8233956;28;20529;-77
2022/09/30 06:14:24;;;;;;;;;;;;;;;4.88;97.01;98739.06;8265359;28;19988;-77
2022/09/30 06:18:27;;;;;;;;;;;;;;;4.90;96.79;98743.34;8245912;28;20508;-77
2022/09/30 06:22:28;;;;;;;;;;;;;;;4.93;96.75;98750.22;8253830;28;20374;-76
2022/09/30 06:26:29;;;;;;;;;;;;;;;4.89;96.28;98764.78;8244704;28;19926;-77
2022/09/30 06:30:31;;;;;;;;;;;;;;;4.99;96.69;98768.28;8245134;28;19926;-77
2022/09/30 06:34:35;;;;;;;;;;;;;;;5.08;96.89;98778.66;8241146;28;20282;-77
2022/09/30 06:38:38;;;;;;;;;;;;;;;5.15;96.61;98791.56;8240960;28;19988;-77
2022/09/30 06:42:40;;;;;;;;;;;;;;;5.21;96.43;98790.75;8238614;28;19965;-77
2022/09/30 06:46:42;;;;;;;;;;;;;;;5.31;96.55;98789.97;8246238;28;20319;-77
2022/09/30 06:50:57;;;;;;;;;;;;;;;5.40;96.86;98800.34;8242476;28;19932;-77
2022/09/30 06:55:02;;;;;;;;;;;;;;;5.48;96.76;98800.38;8255065;28;19925;-76
2022/09/30 06:59:03;;;;;;;;;;;;;;;5.54;96.26;98794.38;8250093;28;20461;-76
2022/09/30 07:03:08;;;;;;;;;;;;;;;5.68;96.64;98793.63;8231810;28;20334;-77
2022/09/30 07:07:11;;;;;;;;;;;;;;;5.83;96.43;98787.69;8227845;28;19926;-76
2022/09/30 07:11:15;;;;;;;;;;;;;;;5.95;96.52;98792.94;8241953;28;19935;-76
2022/09/30 07:15:18;;;;;;;;;;;;;;;6.00;95.81;98796.38;8249500;28;20358;-76
2022/09/30 07:19:23;;;;;;;;;;;;;;;6.04;95.22;98789.53;8249384;28;19949;-76
2022/09/30 07:23:27;;;;;;;;;;;;;;;6.14;95.23;98793.88;8242029;28;19930;-77
2022/09/30 07:27:31;;;;;;;;;;;;;;;6.13;94.60;98797.31;8249084;28;19929;-77
2022/09/30 07:31:32;;;;;;;;;;;;;;;6.24;94.67;98802.47;8245798;28;20514;-76
2022/09/30 07:35:36;;;;;;;;;;;;;;;6.38;94.69;98799.94;8254156;28;19933;-77
2022/09/30 07:39:38;;;;;;;;;;;;;;;6.44;94.52;98808.56;8252069;28;20327;-76
2022/09/30 07:43:42;;;;;;;;;;;;;;;6.50;94.22;98808.59;8254994;28;20590;-76
2022/09/30 07:47:43;;;;;;;;;;;;;;;6.43;93.34;98816.28;8245090;28;19925;-76
2022/09/30 07:51:47;;;;;;;;;;;;;;;6.54;93.63;98822.34;8247367;28;19972;-77
2022/09/30 07:55:49;;;;;;;;;;;;;;;6.64;93.77;98822.38;8249503;28;19926;-77
2022/09/30 07:59:50;;;;;;;;;;;;;;;6.82;94.21;98825.81;8253015;28;20322;-76
2022/09/30 08:03:52;;;;;;;;;;;;;;;6.98;93.92;98833.59;8235563;28;19985;-76
2022/09/30 08:07:54;;;;;;;;;;;;;;;7.08;93.60;98831.88;8237359;28;19926;-77
2022/09/30 08:11:55;;;;;;;;;;;;;;;7.22;93.44;98835.34;8242861;28;19977;-77
2022/09/30 08:15:57;;;;;;;;;;;;;;;7.34;93.18;98833.59;8220995;28;19956;-77
2022/09/30 08:19:58;;;;;;;;;;;;;;;7.44;92.67;98846.50;8249061;28;19925;-77
2022/09/30 08:24:02;;;;;;;;;;;;;;;7.50;92.45;98861.13;8239776;28;19992;-76
2022/09/30 08:28:03;;;;;;;;;;;;;;;7.61;91.75;98849.09;8227945;28;20410;-77
2022/09/30 08:32:04;;;;;;;;;;;;;;;7.64;91.72;98850.78;8240678;28;19925;-77
2022/09/30 08:36:26;;;;;;;;;;;;;;;7.69;91.25;98860.25;8226332;28;20824;-77
2022/09/30 08:40:32;;;;;;;;;;;;;;;7.87;91.47;98869.69;8262727;28;19926;-77
2022/09/30 08:44:44;;;;;;;;;;;;;;;8.00;91.59;98875.72;8250181;28;19925;-77
2022/09/30 08:48:51;;;;;;;;;;;;;;;8.17;91.96;98879.09;8240541;28;20410;-76
2022/09/30 08:52:56;;;;;;;;;;;;;;;8.30;91.28;98885.13;8242273;28;19976;-76
2022/09/30 08:56:58;;;;;;;;;;;;;;;8.39;90.93;98874.75;8245530;28;19925;-77
2022/09/30 09:01:15;;;;;;;;;;;;;;;8.41;90.19;98878.19;8230001;28;19926;-77
2022/09/30 09:05:32;;;;;;;;;;;;;;;8.41;90.07;98891.97;8242336;28;19940;-76
2022/09/30 09:09:42;;;;;;;;;;;;;;;8.54;90.98;98889.34;8238582;28;19985;-76
2022/09/30 09:13:55;;;;;;;;;;;;;;;8.73;90.41;98894.44;8240987;28;19991;-76
2022/09/30 09:17:57;;;;;;;;;;;;;;;8.96;90.82;98896.88;8228279;28;19929;-77
2022/09/30 09:22:19;;;;;;;;;;;;;;;9.01;89.33;98897.75;8231951;28;20251;-76
2022/09/30 09:26:26;;;;;;;;;;;;;;;8.99;88.59;98901.22;8233500;28;20022;-77
2022/09/30 09:30:30;;;;;;;;;;;;;;;9.02;87.99;98902.06;8239350;28;19969;-76
2022/09/30 09:34:31;;;;;;;;;;;;;;;9.20;88.93;98890.72;8239637;28;19925;-76
2022/09/30 09:39:03;;;;;;;;;;;;;;;9.45;88.89;98896.56;8245629;28;19925;-76
2022/09/30 09:43:08;;;;;;;;;;;;;;;9.50;87.54;98904.28;8222613;28;19926;-76
2022/09/30 09:47:15;;;;;;;;;;;;;;;9.51;87.41;98896.50;8253546;28;19932;-76
2022/09/30 09:51:21;;;;;;;;;;;;;;;9.98;88.14;98900.41;8233531;28;20149;-76
2022/09/30 09:55:22;;;;;;;;;;;;;;;10.36;86.45;98891.38;8245860;28;20008;-76
2022/09/30 09:59:24;;;;;;;;;;;;;;;10.71;85.37;98897.00;8248230;28;19926;-76
2022/09/30 10:03:27;;;;;;;;;;;;;;;11.02;83.16;98886.22;8238132;28;19925;-76
2022/09/30 10:07:29;;;;;;;;;;;;;;;11.24;81.65;98886.75;8242519;28;20564;-76
2022/09/30 10:11:30;;;;;;;;;;;;;;;11.63;81.50;98878.28;8239121;28;19925;-76
2022/09/30 10:15:32;;;;;;;;;;;;;;;11.98;79.72;98884.66;8236107;28;20422;-76
2022/09/30 10:19:34;;;;;;;;;;;;;;;12.42;78.68;98882.97;8242023;28;20369;-76
2022/09/30 10:23:39;;;;;;;;;;;;;;;12.75;76.25;98884.00;8226051;28;19986;-77
2022/09/30 10:28:00;;;;;;;;;;;;;;;13.19;75.32;98886.53;8246042;28;19984;-77
2022/09/30 10:32:05;;;;;;;;;;;;;;;13.54;74.09;98892.66;8238987;28;19925;-77
2022/09/30 10:36:08;;;;;;;;;;;;;;;13.80;73.98;98892.00;8241174;28;19988;-76
2022/09/30 10:40:15;;;;;;;;;;;;;;;13.99;71.67;98893.22;8252301;28;20715;-76
2022/09/30 10:44:21;;;;;;;;;;;;;;;14.18;69.93;98888.38;8253486;28;20636;-76
2022/09/30 10:48:24;;;;;;;;;;;;;;;14.40;70.31;98884.28;8247583;28;19930;-76
2022/09/30 10:52:49;;;;;;;;;;;;;;;14.67;69.26;98882.66;8243465;28;19980;-76
2022/09/30 10:56:51;;;;;;;;;;;;;;;14.81;68.36;98875.28;8230314;28;19925;-77
2022/09/30 11:00:55;;;;;;;;;;;;;;;14.98;67.04;98866.94;8241596;28;19926;-76
2022/09/30 11:05:09;;;;;;;;;;;;;;;15.24;65.87;98871.34;8253183;28;19969;-76
2022/09/30 11:09:29;;;;;;;;;;;;;;;15.32;64.89;98874.59;8245203;28;19926;-76
2022/09/30 11:13:50;;;;;;;;;;;;;;;15.46;65.15;98883.75;8256722;28;19930;-76
2022/09/30 11:17:59;;;;;;;;;;;;;;;15.51;62.39;98880.09;8253070;28;20619;-76
2022/09/30 11:22:21;;;;;;;;;;;;;;;15.62;61.44;98875.41;8241682;28;19925;-77
2022/09/30 11:26:22;;;;;;;;;;;;;;;15.80;59.68;98875.66;8209738;28;19933;-77
2022/09/30 11:30:42;;;;;;;;;;;;;;;15.88;60.54;98878.88;8247941;28;19933;-77
2022/09/30 11:34:55;;;;;;;;;;;;;;;16.05;60.99;98878.31;8241332;28;19925;-76
2022/09/30 11:39:16;;;;;;;;;;;;;;;16.15;58.67;98879.69;8244018;28;19936;-77
2022/09/30 11:43:40;;;;;;;;;;;;;;;16.16;59.63;98877.03;8247947;28;19930;-77
2022/09/30 11:47:53;;;;;;;;;;;;;;;16.39;57.95;98875.34;8228447;28;20313;-77
2022/09/30 11:52:15;;;;;;;;;;;;;;;16.43;57.38;98871.72;8246266;28;20606;-77
2022/09/30 11:56:29;;;;;;;;;;;;;;;16.57;56.62;98865.06;8238803;28;19925;-74
2022/09/30 12:00:33;;;;;;;;;;;;;;;16.73;56.40;98864.50;8240679;28;19926;-77
2022/09/30 12:04:38;;;;;;;;;;;;;;;16.79;53.94;98864.28;8234330;28;20008;-77
2022/09/30 12:08:49;;;;;;;;;;;;;;;17.00;54.67;98857.34;8264856;28;19926;-77
2022/09/30 12:12:54;;;;;;;;;;;;;;;17.19;53.05;98853.06;8258814;28;19926;-77
2022/09/30 12:16:57;;;;;;;;;;;;;;;17.38;52.18;98861.06;8244814;28;19929;-77
2022/09/30 12:21:08;;;;;;;;;;;;;;;17.37;49.96;98870.72;8254410;28;19933;-76
2022/09/30 12:25:19;;;;;;;;;;;;;;;17.35;50.41;98879.56;8241656;28;20268;-76
2022/09/30 12:30:28;;;;;;;;;;;;;;;17.52;53.24;98871.88;8245325;28;19977;-77
2022/09/30 12:34:09;;;;;;;;;;;;;;;17.53;52.81;98882.31;8232694;28;20607;-77
2022/09/30 12:38:11;;;;;;;;;;;;;;;17.60;52.59;98876.81;8260982;28;19980;-77
2022/09/30 12:42:25;;;;;;;;;;;;;;;17.57;50.58;98880.41;8243197;28;19926;-76
2022/09/30 12:46:45;;;;;;;;;;;;;;;17.63;52.45;98866.19;8254037;28;19930;-76
2022/09/30 12:50:52;;;;;;;;;;;;;;;17.43;52.05;98878.34;8247367;28;19926;-76
2022/09/30 12:55:00;;;;;;;;;;;;;;;17.39;52.16;98874.13;8245418;28;19925;-76
2022/09/30 12:59:02;;;;;;;;;;;;;;;17.28;50.96;98878.13;8252146;28;19925;-77
2022/09/30 13:03:14;;;;;;;;;;;;;;;17.01;50.88;98887.91;8238592;28;19965;-77
2022/09/30 13:07:17;;;;;;;;;;;;;;;17.05;52.18;98881.63;8245340;28;19977;-76
2022/09/30 13:11:32;;;;;;;;;;;;;;;17.18;51.58;98886.34;8250551;28;19930;-76
2022/09/30 13:15:35;;;;;;;;;;;;;;;17.21;51.68;98880.97;8244497;28;20842;-75
2022/09/30 13:19:39;;;;;;;;;;;;;;;17.14;49.34;98871.63;8257186;28;19935;-77
2022/09/30 13:23:41;;;;;;;;;;;;;;;17.20;51.12;98874.00;8242375;28;19921;-77
2022/09/30 13:27:43;;;;;;;;;;;;;;;17.28;51.13;98876.34;8245771;28;20017;-76
2022/09/30 13:31:44;;;;;;;;;;;;;;;17.34;50.47;98880.47;8242092;28;19925;-77
2022/09/30 13:35:46;;;;;;;;;;;;;;;17.32;48.98;98883.16;8263142;28;19928;-77
2022/09/30 13:39:53;;;;;;;;;;;;;;;17.22;49.02;98868.69;8249591;28;19929;-77
2022/09/30 13:44:01;;;;;;;;;;;;;;;16.87;49.29;98873.53;8238218;28;19926;-77
2022/09/30 13:48:10;;;;;;;;;;;;;;;16.88;51.66;98867.41;8245556;28;19952;-77
2022/09/30 13:52:23;;;;;;;;;;;;;;;16.91;52.49;98875.16;8251357;28;19968;-75
2022/09/30 13:56:29;;;;;;;;;;;;;;;16.90;51.37;98869.97;8253698;28;19925;-75
2022/09/30 14:00:54;;;;;;;;;;;;;;;16.81;52.05;98858.06;8254920;28;19988;-76
2022/09/30 14:04:57;;;;;;;;;;;;;;;16.80;53.15;98855.50;8254147;28;20639;-76
2022/09/30 14:09:11;;;;;;;;;;;;;;;16.87;52.24;98859.56;8252873;28;19996;-77
2022/09/30 14:13:24;;;;;;;;;;;;;;;16.91;52.14;98855.94;8244352;28;19929;-77
2022/09/30 14:17:27;;;;;;;;;;;;;;;16.93;50.67;98851.50;8247774;28;19930;-76
2022/09/30 14:21:47;;;;;;;;;;;;;;;16.86;50.92;98856.09;8248826;28;19922;-77
2022/09/30 14:25:57;;;;;;;;;;;;;;;16.79;50.60;98851.16;8252477;28;19933;-76
2022/09/30 14:29:58;;;;;;;;;;;;;;;16.80;50.22;98853.72;8251176;28;20000;-76
2022/09/30 14:34:00;;;;;;;;;;;;;;;16.75;51.18;98839.94;8253094;28;19949;-77
2022/09/30 14:38:01;;;;;;;;;;;;;;;16.67;50.30;98841.13;8246572;28;19996;-77
2022/09/30 14:42:03;;;;;;;;;;;;;;;16.61;49.98;98827.31;8240418;28;20334;-76
2022/09/30 14:46:06;;;;;;;;;;;;;;;16.49;49.37;98837.41;8252372;28;19925;-77
2022/09/30 14:50:15;;;;;;;;;;;;;;;16.50;50.38;98836.50;8243339;28;19946;-77
2022/09/30 14:54:17;;;;;;;;;;;;;;;16.65;51.45;98841.16;8242321;28;19929;-77
2022/09/30 14:58:22;;;;;;;;;;;;;;;16.71;50.26;98848.84;8254175;28;19933;-76
2022/09/30 15:02:23;;;;;;;;;;;;;;;16.75;50.12;98836.47;8252203;28;19926;-76
2022/09/30 15:06:30;;;;;;;;;;;;;;;16.71;49.67;98843.59;8245359;28;20394;-76
2022/09/30 15:10:32;;;;;;;;;;;;;;;16.77;49.83;98829.41;8248821;28;20009;-76
2022/09/30 15:14:44;;;;;;;;;;;;;;;16.86;52.19;98823.78;8241840;28;19929;-76
2022/09/30 15:18:46;;;;;;;;;;;;;;;16.93;49.70;98825.28;8224835;28;19957;-77
2022/09/30 15:22:47;;;;;;;;;;;;;;;16.98;50.39;98819.84;8250136;28;19930;-76
2022/09/30 15:26:50;;;;;;;;;;;;;;;17.16;50.59;98819.94;8254964;28;20706;-77
2022/09/30 15:30:53;;;;;;;;;;;;;;;17.58;51.59;98828.75;8245976;28;19926;-76
2022/09/30 15:34:57;;;;;;;;;;;;;;;17.85;51.84;98816.25;8251611;28;19980;-76
2022/09/30 15:38:58;;;;;;;;;;;;;;;17.61;50.10;98832.13;8255037;28;19958;-76
2022/09/30 15:43:01;;;;;;;;;;;;;;;17.71;50.13;98824.72;8251693;28;20433;-76
2022/09/30 15:47:06;;;;;;;;;;;;;;;18.34;50.23;98825.47;8254267;28;20344;-76
2022/09/30 15:51:26;;;;;;;;;;;;;;;18.52;49.93;98822.00;8244615;28;19933;-76
2022/09/30 15:55:40;;;;;;;;;;;;;;;18.83;47.51;98816.19;8243132;28;19926;-76
2022/09/30 16:00:04;;;;;;;;;;;;;;;21.22;42.27;98826.66;8261658;28;20343;-77
2022/09/30 16:04:14;;;;;;;;;;;;;;;20.85;42.78;98827.84;8247850;28;19930;-76
2022/09/30 16:08:22;;;;;;;;;;;;;;;20.16;45.33;98828.03;8255886;28;19980;-76
2022/09/30 16:12:30;;;;;;;;;;;;;;;19.52;46.40;98833.91;8248684;28;20351;-76
2022/09/30 16:16:33;;;;;;;;;;;;;;;20.10;44.32;98830.97;8256616;28;19926;-77
2022/09/30 16:20:35;;;;;;;;;;;;;;;18.78;47.12;98838.38;8246021;28;19926;-76
2022/09/30 16:24:37;;;;;;;;;;;;;;;17.37;52.10;98833.97;8251806;28;19975;-76
2022/09/30 16:28:38;;;;;;;;;;;;;;;16.24;55.82;98840.94;8229319;28;20049;-76
2022/09/30 16:32:41;;;;;;;;;;;;;;;15.40;59.53;98840.31;8248897;28;19926;-77
2022/09/30 16:36:42;;;;;;;;;;;;;;;14.71;62.52;98852.06;8248410;28;19958;-77
2022/09/30 16:40:43;;;;;;;;;;;;;;;14.12;65.40;98852.84;8269502;28;20007;-76
2022/09/30 16:44:45;;;;;;;;;;;;;;;13.65;67.54;98858.50;8226150;28;20476;-76
2022/09/30 16:48:46;;;;;;;;;;;;;;;13.27;68.72;98861.13;8247962;28;19957;-77
2022/09/30 16:52:48;;;;;;;;;;;;;;;12.87;70.10;98870.72;8218532;28;19926;-77
2022/09/30 16:56:51;;;;;;;;;;;;;;;12.50;71.46;98870.63;8244660;28;19926;-76
2022/09/30 17:00:52;;;;;;;;;;;;;;;12.25;73.24;98867.69;8240613;28;19992;-77
2022/09/30 17:04:53;;;;;;;;;;;;;;;11.99;73.97;98871.63;8241633;28;20580;-76
2022/09/30 17:08:55;;;;;;;;;;;;;;;11.81;75.06;98877.16;8238428;28;19925;-77
2022/09/30 17:13:02;;;;;;;;;;;;;;;11.58;75.67;98890.53;8249442;28;19925;-76
2022/09/30 17:17:03;;;;;;;;;;;;;;;11.34;76.33;98896.13;8251577;28;19932;-76
2022/09/30 17:21:05;;;;;;;;;;;;;;;11.15;76.55;98901.59;8246250;28;19964;-76
2022/09/30 17:25:07;;;;;;;;;;;;;;;11.00;77.39;98903.56;8232632;28;19997;-76
2022/09/30 17:29:09;;;;;;;;;;;;;;;10.87;78.13;98916.69;8241147;28;19926;-76
2022/09/30 17:33:31;;;;;;;;;;;;;;;10.69;78.65;98916.94;8242841;28;19930;-76
2022/09/30 17:37:34;;;;;;;;;;;;;;;10.49;78.89;98913.72;8240070;28;20434;-77
2022/09/30 17:45:57;;;;;;;;;;;;;;;10.19;80.03;98915.75;8242809;28;19989;-77
2022/09/30 17:49:58;;;;;;;;;;;;;;;10.04;80.43;98907.25;8240669;28;19926;-77
2022/09/30 17:54:00;;;;;;;;;;;;;;;9.98;80.76;98910.78;8245830;28;19926;-77
2022/09/30 17:58:02;;;;;;;;;;;;;;;9.83;81.19;98897.94;8241488;28;19925;-77
2022/09/30 18:02:04;;;;;;;;;;;;;;;9.77;81.95;98896.28;8240868;28;19936;-77
2022/09/30 18:06:06;;;;;;;;;;;;;;;9.67;81.51;98900.69;8243800;28;19926;-77
2022/09/30 18:10:07;;;;;;;;;;;;;;;9.53;81.69;98902.56;8250931;28;19925;-77
2022/09/30 18:14:09;;;;;;;;;;;;;;;9.37;81.90;98907.00;8245527;28;20587;-77
2022/09/30 18:18:11;;;;;;;;;;;;;;;9.25;82.49;98906.22;8232012;28;20405;-77
2022/09/30 18:22:12;;;;;;;;;;;;;;;9.17;82.73;98902.81;8245992;28;20431;-77
2022/09/30 18:26:14;;;;;;;;;;;;;;;9.06;82.54;98908.06;8231698;28;19930;-77
2022/09/30 18:30:17;;;;;;;;;;;;;;;8.98;83.30;98902.94;8245599;28;19925;-77
2022/09/30 18:34:19;;;;;;;;;;;;;;;8.85;83.54;98897.84;8249732;28;19930;-77
2022/09/30 18:38:20;;;;;;;;;;;;;;;8.79;84.21;98896.13;8239014;28;19940;-77
2022/09/30 18:42:21;;;;;;;;;;;;;;;8.72;83.81;98895.31;8245703;28;19925;-77
2022/09/30 18:46:23;;;;;;;;;;;;;;;8.63;83.59;98894.50;8266580;28;19929;-76
2022/09/30 18:50:25;;;;;;;;;;;;;;;8.54;84.47;98897.97;8254392;28;19979;-76
2022/09/30 18:54:26;;;;;;;;;;;;;;;8.45;84.75;98904.06;8240989;28;20256;-76
2022/09/30 18:58:30;;;;;;;;;;;;;;;8.33;85.26;98906.66;8255774;28;20019;-76
2022/09/30 19:02:32;;;;;;;;;;;;;;;8.21;85.40;98905.81;8232917;28;19952;-77
2022/09/30 19:06:34;;;;;;;;;;;;;;;8.13;86.03;98909.28;8252391;28;19926;-76
2022/09/30 19:10:40;;;;;;;;;;;;;;;8.07;86.40;98921.34;8255573;28;19929;-77
2022/09/30 19:14:43;;;;;;;;;;;;;;;8.05;86.55;98925.66;8252393;28;19925;-76
2022/09/30 19:18:45;;;;;;;;;;;;;;;7.99;86.86;98923.97;8253373;28;19976;-76
2022/09/30 19:22:50;;;;;;;;;;;;;;;7.94;86.89;98930.88;8242745;28;20394;-75
2022/09/30 19:26:51;;;;;;;;;;;;;;;7.86;86.51;98943.78;8246970;28;19934;-75
2022/09/30 19:30:53;;;;;;;;;;;;;;;7.78;86.39;98952.44;8247054;28;19926;-75
2022/09/30 19:34:57;;;;;;;;;;;;;;;7.73;86.94;98957.59;8248810;28;20341;-75
2022/09/30 19:39:08;;;;;;;;;;;;;;;7.68;87.19;98955.84;8246870;28;19925;-75
2022/09/30 19:43:15;;;;;;;;;;;;;;;7.61;87.23;98955.00;8256917;28;20040;-75
2022/09/30 19:47:17;;;;;;;;;;;;;;;7.54;87.57;98942.94;8267840;28;19976;-75
2022/09/30 19:51:18;;;;;;;;;;;;;;;7.53;88.16;98936.91;8235066;28;20280;-75
2022/09/30 19:55:20;;;;;;;;;;;;;;;7.49;88.56;98936.91;8245537;28;19984;-75
2022/09/30 19:59:22;;;;;;;;;;;;;;;7.45;89.21;98942.94;8241037;28;20343;-75
2022/09/30 20:03:24;;;;;;;;;;;;;;;7.49;89.90;98942.06;8247170;28;19933;-75
2022/09/30 20:07:26;;;;;;;;;;;;;;;7.46;89.69;98950.69;8246190;28;19929;-75
2022/09/30 20:11:31;;;;;;;;;;;;;;;7.47;90.11;98941.22;8251174;28;19926;-75
2022/09/30 20:15:52;;;;;;;;;;;;;;;7.50;90.18;98967.03;8239917;28;20307;-75
2022/09/30 20:24:14;;;;;;;;;;;;;;;7.47;89.98;98957.56;8244834;28;19929;-75
2022/09/30 20:28:16;;;;;;;;;;;;;;;7.44;89.28;98967.06;8250016;28;19925;-75
2022/09/30 20:32:17;;;;;;;;;;;;;;;7.31;88.80;98983.38;8250300;28;19925;-75
2022/09/30 20:36:18;;;;;;;;;;;;;;;7.21;88.58;98973.03;8244672;28;19929;-75
2022/09/30 20:40:20;;;;;;;;;;;;;;;7.19;88.70;98985.09;8240955;28;19930;-76
2022/09/30 20:44:21;;;;;;;;;;;;;;;7.12;89.10;98966.97;8244359;28;19929;-76
2022/09/30 20:48:23;;;;;;;;;;;;;;;7.07;88.93;98966.13;8226238;28;19926;-75
2022/09/30 20:52:24;;;;;;;;;;;;;;;6.96;88.93;98966.94;8240044;28;19926;-76
2022/09/30 20:56:27;;;;;;;;;;;;;;;6.91;89.12;98966.06;8238101;28;19926;-76
2022/09/30 21:00:34;;;;;;;;;;;;;;;6.85;89.09;98966.06;8231534;28;20004;-75
2022/09/30 21:04:35;;;;;;;;;;;;;;;6.79;89.08;98962.56;8239117;28;19933;-76
2022/09/30 21:08:37;;;;;;;;;;;;;;;6.77;89.21;98957.41;8235706;28;20318;-76
2022/09/30 21:12:39;;;;;;;;;;;;;;;6.70;89.30;98949.66;8241736;28;20420;-74
2022/09/30 21:16:41;;;;;;;;;;;;;;;6.64;89.75;98950.47;8238453;28;20469;-74
2022/09/30 21:20:42;;;;;;;;;;;;;;;6.62;89.44;98945.31;8237439;28;19936;-76
2022/09/30 21:24:44;;;;;;;;;;;;;;;6.58;89.62;98924.66;8241295;28;19926;-78
2022/09/30 21:28:47;;;;;;;;;;;;;;;6.54;89.69;98928.09;8236770;28;20028;-76
2022/09/30 21:32:49;;;;;;;;;;;;;;;6.54;89.79;98921.22;8253029;28;20603;-76
2022/09/30 21:36:51;;;;;;;;;;;;;;;6.51;90.11;98913.47;8248514;28;20612;-76